Time;durP1;ratioP1;P1;durP2;ratioP2;P2;SDS_P1;SDS_P2;PMS_P1;PMS_P2;Temp;Humidity;BMP_temperature;BMP_pressure;BME280_temperature;BME280_humidity;BME280_pressure;Samples;Min_cycle;Max_cycle;Signal;HPM_P1;HPM_P2
2021/09/19 00:00:45;;;;;;;7.17;5.00;;;;;;;11.89;79.39;102042.78;5015341;28;20207;-78
2021/09/19 00:03:11;;;;;;;7.97;5.17;;;;;;;11.84;79.81;102037.47;4998303;28;20250;-77
2021/09/19 00:05:36;;;;;;;8.60;5.50;;;;;;;11.80;80.12;102038.19;4997189;28;20206;-78
2021/09/19 00:08:02;;;;;;;9.43;6.10;;;;;;;11.80;79.70;102037.34;5015807;28;20182;-78
2021/09/19 00:10:27;;;;;;;8.53;5.53;;;;;;;11.79;79.83;102038.13;5015608;28;20314;-78
2021/09/19 00:12:53;;;;;;;9.13;5.63;;;;;;;11.75;80.23;102039.72;5014852;28;20203;-78
2021/09/19 00:15:20;;;;;;;7.73;5.10;;;;;;;11.71;80.10;102037.03;4997855;28;20279;-78
2021/09/19 00:17:46;;;;;;;9.17;5.60;;;;;;;11.67;79.95;102042.88;5014341;28;20186;-77
2021/09/19 00:20:13;;;;;;;8.47;5.80;;;;;;;11.60;80.30;102041.78;5014082;28;20199;-78
2021/09/19 00:22:39;;;;;;;7.27;5.13;;;;;;;11.57;80.50;102040.78;5016039;28;20195;-78
2021/09/19 00:25:06;;;;;;;8.63;5.70;;;;;;;11.54;80.32;102040.66;5015902;28;20242;-77
2021/09/19 00:27:32;;;;;;;11.73;5.47;;;;;;;11.50;80.40;102038.81;5015349;28;20183;-78
2021/09/19 00:29:57;;;;;;;8.60;5.60;;;;;;;11.45;80.63;102042.91;5014473;28;20223;-78
2021/09/19 00:32:22;;;;;;;8.97;5.50;;;;;;;11.44;80.73;102034.34;4997598;28;20195;-77
2021/09/19 00:34:48;;;;;;;8.17;5.27;;;;;;;11.42;80.95;102029.97;5014374;28;20191;-78
2021/09/19 00:37:13;;;;;;;8.50;5.10;;;;;;;11.42;80.79;102027.41;5015198;28;20194;-78
2021/09/19 00:39:38;;;;;;;8.70;5.53;;;;;;;11.35;80.88;102030.59;5014572;28;20217;-78
2021/09/19 00:42:04;;;;;;;11.10;5.63;;;;;;;11.33;80.93;102039.94;5016414;28;20183;-78
2021/09/19 00:44:29;;;;;;;9.20;5.40;;;;;;;11.29;80.32;102032.94;5015082;28;20241;-78
2021/09/19 00:46:55;;;;;;;8.70;5.23;;;;;;;11.26;80.61;102027.69;5013534;28;20214;-78
2021/09/19 00:49:23;;;;;;;7.90;5.10;;;;;;;11.24;80.90;102031.91;5016210;28;20223;-78
2021/09/19 00:51:49;;;;;;;6.40;4.77;;;;;;;11.19;80.48;102028.28;5001533;28;20203;-77
2021/09/19 00:54:16;;;;;;;7.83;4.90;;;;;;;11.17;80.65;102029.94;5018433;28;20217;-78
2021/09/19 00:56:45;;;;;;;7.80;4.73;;;;;;;11.10;80.75;102030.53;5017491;28;20191;-79
2021/09/19 00:59:10;;;;;;;7.67;5.03;;;;;;;11.11;80.40;102033.13;5017497;28;20229;-78
2021/09/19 01:01:36;;;;;;;10.40;5.20;;;;;;;11.02;80.64;102032.78;4998949;28;20203;-78
2021/09/19 01:04:01;;;;;;;10.57;5.50;;;;;;;10.94;81.02;102026.53;5000878;28;20187;-77
2021/09/19 01:06:28;;;;;;;8.93;4.97;;;;;;;10.93;80.33;102029.91;5017358;28;20196;-78
2021/09/19 01:08:54;;;;;;;7.10;5.00;;;;;;;10.88;81.34;102028.00;5018911;28;20211;-78
2021/09/19 01:11:20;;;;;;;12.20;5.97;;;;;;;10.82;81.82;102030.31;5019709;28;20230;-78
2021/09/19 01:13:46;;;;;;;8.23;5.63;;;;;;;10.78;81.89;102025.91;5019281;28;20690;-77
2021/09/19 01:16:14;;;;;;;9.17;5.50;;;;;;;10.80;81.48;102031.97;5019331;28;20548;-78
2021/09/19 01:18:41;;;;;;;8.10;5.33;;;;;;;10.77;81.85;102036.97;5019852;28;20182;-78
2021/09/19 01:21:08;;;;;;;9.63;5.77;;;;;;;10.69;81.73;102035.81;5018731;28;20222;-78
2021/09/19 01:23:36;;;;;;;7.67;5.17;;;;;;;10.64;81.68;102033.06;5019850;28;20191;-78
2021/09/19 01:26:02;;;;;;;9.37;5.53;;;;;;;10.61;81.85;102032.09;5018370;28;20741;-77
2021/09/19 01:28:27;;;;;;;8.40;5.77;;;;;;;10.64;81.98;102038.19;5017651;28;20290;-78
2021/09/19 01:30:53;;;;;;;8.50;5.07;;;;;;;10.56;82.05;102037.00;5018974;28;20569;-77
2021/09/19 01:33:19;;;;;;;9.60;5.90;;;;;;;10.59;82.04;102036.25;5018441;28;20191;-78
2021/09/19 01:35:44;;;;;;;8.83;4.80;;;;;;;10.61;82.84;102032.97;5016916;28;20190;-78
2021/09/19 01:38:09;;;;;;;7.80;5.60;;;;;;;10.68;82.25;102041.72;5018053;28;20211;-78
2021/09/19 01:40:35;;;;;;;10.33;5.43;;;;;;;10.69;82.57;102040.94;5017848;28;20207;-78
2021/09/19 01:43:01;;;;;;;11.47;6.13;;;;;;;10.73;82.73;102041.09;5017306;28;20274;-79
2021/09/19 01:45:28;;;;;;;11.83;5.27;;;;;;;10.70;82.64;102038.41;5017805;28;20238;-78
2021/09/19 01:47:54;;;;;;;9.30;5.20;;;;;;;10.74;83.26;102027.47;5018593;28;20551;-78
2021/09/19 01:50:25;;;;;;;9.40;5.80;;;;;;;10.80;83.30;102027.72;5002111;28;20248;-78
2021/09/19 01:52:51;;;;;;;8.13;5.30;;;;;;;10.82;82.19;102033.75;5019096;28;20724;-78
2021/09/19 01:55:16;;;;;;;10.53;4.87;;;;;;;10.85;82.97;102038.13;5017432;28;20187;-78
2021/09/19 01:57:42;;;;;;;10.13;5.77;;;;;;;10.84;83.35;102033.81;5018925;28;20194;-78
2021/09/19 02:00:08;;;;;;;10.23;6.40;;;;;;;10.80;83.79;102031.97;5018293;28;20266;-78
2021/09/19 02:02:35;;;;;;;14.73;6.63;;;;;;;10.85;83.44;102036.44;5018655;28;20230;-77
2021/09/19 02:05:03;;;;;;;9.93;6.50;;;;;;;10.87;83.23;102032.25;5018163;28;20664;-78
2021/09/19 02:07:29;;;;;;;10.87;6.47;;;;;;;10.87;83.88;102027.13;5018407;28;20203;-78
2021/09/19 02:09:54;;;;;;;7.97;6.67;;;;;;;10.92;83.56;102028.16;5001125;28;20211;-77
2021/09/19 02:12:19;;;;;;;10.93;6.83;;;;;;;10.93;83.29;102027.34;5019040;28;20180;-78
2021/09/19 02:14:45;;;;;;;13.57;6.57;;;;;;;10.94;83.09;102016.28;5018253;28;20191;-78
2021/09/19 02:17:12;;;;;;;9.73;5.90;;;;;;;10.96;83.34;102021.47;5018410;28;20203;-78
2021/09/19 02:19:37;;;;;;;10.07;6.37;;;;;;;11.01;83.08;102020.81;5017140;28;20187;-78
2021/09/19 02:22:07;;;;;;;11.03;6.57;;;;;;;11.01;83.84;102019.94;5018321;28;20517;-78
2021/09/19 02:24:32;;;;;;;9.80;6.33;;;;;;;10.99;83.58;102011.31;5016660;28;20596;-78
2021/09/19 02:26:58;;;;;;;10.73;6.27;;;;;;;10.98;83.65;102015.59;5018256;28;20203;-78
2021/09/19 02:29:23;;;;;;;9.60;6.00;;;;;;;10.98;83.79;102015.59;5019013;28;20731;-78
2021/09/19 02:31:48;;;;;;;11.33;5.80;;;;;;;11.03;83.57;102013.19;5018019;28;20225;-78
2021/09/19 02:34:13;;;;;;;9.43;6.57;;;;;;;11.06;83.69;102013.31;5019891;28;20648;-77
2021/09/19 02:36:40;;;;;;;8.73;5.70;;;;;;;11.11;83.69;102014.34;5011699;28;20726;-78
2021/09/19 02:39:08;;;;;;;8.87;5.67;;;;;;;11.12;83.52;102009.28;5015378;28;20206;-78
2021/09/19 02:41:33;;;;;;;8.47;5.30;;;;;;;11.16;83.63;102008.53;5014359;28;20222;-78
2021/09/19 02:43:59;;;;;;;9.60;6.07;;;;;;;11.19;83.60;102010.31;4999643;28;20641;-77
2021/09/19 02:46:24;;;;;;;10.50;6.43;;;;;;;11.20;83.46;102004.41;5015664;28;20254;-77
2021/09/19 02:48:49;;;;;;;10.40;5.90;;;;;;;11.21;83.18;102006.16;5015950;28;20215;-78
2021/09/19 02:51:15;;;;;;;9.53;5.77;;;;;;;11.23;83.41;102010.50;5015674;28;20211;-78
2021/09/19 02:53:40;;;;;;;11.53;6.80;;;;;;;11.26;83.36;102012.31;5018483;28;20211;-78
2021/09/19 02:56:05;;;;;;;10.07;5.50;;;;;;;11.27;83.32;102019.19;5016236;28;20191;-78
2021/09/19 02:58:31;;;;;;;9.53;6.00;;;;;;;11.29;83.94;102020.13;5016592;28;20253;-78
2021/09/19 03:00:56;;;;;;;11.17;6.10;;;;;;;11.29;83.80;102017.56;5016938;28;20215;-78
2021/09/19 03:03:21;;;;;;;8.20;5.90;;;;;;;11.31;83.63;102021.03;5016677;28;20183;-78
2021/09/19 03:05:47;;;;;;;8.77;6.07;;;;;;;11.31;84.03;102021.03;5000007;28;20183;-78
2021/09/19 03:08:12;;;;;;;8.63;6.13;;;;;;;11.34;84.46;102018.59;5016368;28;20198;-78
2021/09/19 03:10:37;;;;;;;10.03;6.00;;;;;;;11.37;83.91;102016.09;5016730;28;20227;-78
2021/09/19 03:13:03;;;;;;;8.77;5.90;;;;;;;11.39;83.98;102017.91;5016700;28;20195;-78
2021/09/19 03:15:29;;;;;;;7.33;5.67;;;;;;;11.41;84.64;102011.16;5016358;28;20217;-78
2021/09/19 03:17:54;;;;;;;9.53;5.17;;;;;;;11.43;84.78;102017.19;5000050;28;20261;-78
2021/09/19 03:20:20;;;;;;;9.57;6.20;;;;;;;11.45;84.74;102014.69;5000085;28;20210;-78
2021/09/19 03:22:46;;;;;;;7.30;4.73;;;;;;;11.48;84.16;102015.66;4999813;28;20210;-78
2021/09/19 03:25:12;;;;;;;7.67;5.53;;;;;;;11.51;84.16;102015.78;5015912;28;20195;-78
2021/09/19 03:27:38;;;;;;;7.33;5.50;;;;;;;11.54;84.22;102009.88;5015567;28;20201;-78
2021/09/19 03:30:06;;;;;;;8.50;5.03;;;;;;;11.56;83.61;102010.81;5014932;28;20312;-78
2021/09/19 03:32:32;;;;;;;7.03;4.63;;;;;;;11.58;83.40;102007.47;5015458;28;20267;-78
2021/09/19 03:34:57;;;;;;;8.20;5.00;;;;;;;11.60;84.00;102011.00;5016981;28;20218;-78
2021/09/19 03:37:23;;;;;;;9.27;5.00;;;;;;;11.61;84.44;102005.03;5016946;28;20535;-78
2021/09/19 03:39:48;;;;;;;10.50;5.57;;;;;;;11.66;84.12;102007.78;5015352;28;20187;-78
2021/09/19 03:42:13;;;;;;;7.53;4.70;;;;;;;11.73;83.00;102013.16;5016045;28;20845;-78
2021/09/19 03:44:39;;;;;;;6.77;4.90;;;;;;;11.76;82.30;102012.38;5015430;28;20237;-78
2021/09/19 03:47:04;;;;;;;6.37;4.20;;;;;;;11.81;81.86;102006.59;5014688;28;20187;-78
2021/09/19 03:49:31;;;;;;;8.07;4.73;;;;;;;11.84;81.86;102011.81;5016268;28;20242;-78
2021/09/19 03:51:56;;;;;;;6.53;4.43;;;;;;;11.87;82.01;102013.59;5017255;28;20211;-78
2021/09/19 03:54:22;;;;;;;6.83;4.47;;;;;;;11.89;81.72;102014.53;5015163;28;20278;-78
2021/09/19 03:56:47;;;;;;;9.17;4.63;;;;;;;11.93;81.30;102021.53;5016763;28;20618;-77
2021/09/19 03:59:12;;;;;;;6.57;4.13;;;;;;;11.97;81.10;102016.53;5015619;28;20183;-78
2021/09/19 04:01:37;;;;;;;7.67;4.30;;;;;;;11.95;81.67;102022.44;4998308;28;20301;-78
2021/09/19 04:04:03;;;;;;;9.40;4.50;;;;;;;11.95;81.63;102019.88;5016207;28;20218;-78
2021/09/19 04:06:28;;;;;;;8.10;4.40;;;;;;;11.97;81.55;102028.47;5014956;28;20195;-78
2021/09/19 04:08:53;;;;;;;7.60;4.60;;;;;;;11.98;81.86;102027.66;5016232;28;20549;-78
2021/09/19 04:11:19;;;;;;;6.20;4.33;;;;;;;11.97;82.01;102016.53;4998402;28;20773;-78
2021/09/19 04:13:44;;;;;;;6.40;4.53;;;;;;;12.00;81.99;102020.88;5014814;28;20659;-78
2021/09/19 04:16:10;;;;;;;7.73;4.50;;;;;;;11.99;81.78;102024.28;5015439;28;20692;-78
2021/09/19 04:18:35;;;;;;;6.67;4.67;;;;;;;12.07;81.11;102020.28;5015597;28;20687;-78
2021/09/19 04:21:00;;;;;;;6.53;4.80;;;;;;;12.09;81.18;102023.75;5018378;28;20204;-77
2021/09/19 04:23:26;;;;;;;7.60;4.50;;;;;;;12.09;81.48;102018.59;5011765;28;20187;-78
2021/09/19 04:25:51;;;;;;;8.10;4.40;;;;;;;12.10;81.33;102020.34;5011938;28;20206;-78
2021/09/19 04:28:17;;;;;;;6.03;4.50;;;;;;;12.10;81.13;102031.50;5012989;28;20211;-77
2021/09/19 04:30:42;;;;;;;7.23;4.30;;;;;;;12.11;80.80;102024.66;5012971;28;20257;-77
2021/09/19 04:33:08;;;;;;;8.23;4.63;;;;;;;12.17;80.27;102023.16;4997225;28;20621;-78
2021/09/19 04:35:33;;;;;;;6.60;4.33;;;;;;;12.17;80.49;102027.44;5014250;28;20191;-78
2021/09/19 04:37:58;;;;;;;6.93;4.27;;;;;;;12.18;80.11;102027.50;5014274;28;20191;-78
2021/09/19 04:40:24;;;;;;;7.27;4.00;;;;;;;12.20;80.02;102028.41;5015536;28;20191;-78
2021/09/19 04:42:49;;;;;;;7.27;4.90;;;;;;;12.20;80.13;102024.94;5014426;28;20199;-78
2021/09/19 04:45:15;;;;;;;7.43;4.80;;;;;;;12.23;79.39;102032.75;5015063;28;20259;-78
2021/09/19 04:47:40;;;;;;;9.10;5.30;;;;;;;12.25;78.86;102023.38;5015135;28;20591;-78
2021/09/19 04:50:07;;;;;;;5.70;4.60;;;;;;;12.26;78.98;102027.72;5014463;28;20215;-78
2021/09/19 04:52:32;;;;;;;6.43;4.67;;;;;;;12.25;79.50;102024.28;5015019;28;20179;-78
2021/09/19 04:54:57;;;;;;;7.13;4.23;;;;;;;12.25;79.62;102028.53;5015183;28;20721;-78
2021/09/19 04:57:22;;;;;;;7.73;4.57;;;;;;;12.25;79.27;102018.25;5014615;28;20202;-78
2021/09/19 04:59:48;;;;;;;6.70;3.93;;;;;;;12.28;79.18;102018.38;5015669;28;20188;-78
2021/09/19 05:02:13;;;;;;;5.50;3.90;;;;;;;12.27;80.57;102021.75;5014242;28;20242;-78
2021/09/19 05:04:39;;;;;;;7.90;4.23;;;;;;;12.28;80.16;102015.78;5015041;28;20179;-78
2021/09/19 05:07:04;;;;;;;6.67;4.37;;;;;;;12.31;79.76;102018.47;5014274;28;20191;-78
2021/09/19 05:09:29;;;;;;;6.73;4.20;;;;;;;12.33;79.18;102022.84;5015867;28;20218;-78
2021/09/19 05:11:55;;;;;;;7.67;4.60;;;;;;;12.32;78.80;102022.78;5014184;28;20215;-78
2021/09/19 05:14:20;;;;;;;8.07;4.63;;;;;;;12.33;79.42;102019.38;5014760;28;20191;-77
2021/09/19 05:16:45;;;;;;;6.87;5.17;;;;;;;12.34;79.74;102018.53;5014627;28;20771;-78
2021/09/19 05:19:11;;;;;;;6.63;5.30;;;;;;;12.33;79.05;102017.69;5014125;28;20187;-77
2021/09/19 05:21:36;;;;;;;8.50;7.60;;;;;;;12.35;79.01;102015.19;4998785;28;20214;-78
2021/09/19 05:24:02;;;;;;;8.07;4.60;;;;;;;12.37;78.18;102014.41;5013931;28;20198;-78
2021/09/19 05:26:27;;;;;;;7.90;4.50;;;;;;;12.38;78.13;102015.25;5013986;28;20187;-78
2021/09/19 05:28:53;;;;;;;36.60;25.97;;;;;;;12.39;78.66;102010.16;4997717;28;20219;-78
2021/09/19 05:31:19;;;;;;;7.50;5.43;;;;;;;12.43;77.86;102014.56;5014311;28;20218;-78
2021/09/19 05:33:46;;;;;;;4.90;4.17;;;;;;;12.44;77.29;102018.88;5013955;28;20862;-78
2021/09/19 05:36:12;;;;;;;59.33;53.37;;;;;;;12.45;78.60;102018.06;5013613;28;20176;-78
2021/09/19 05:38:38;;;;;;;7.07;6.23;;;;;;;12.45;77.49;102018.06;5018260;28;20198;-77
2021/09/19 05:41:03;;;;;;;7.37;4.00;;;;;;;12.43;76.81;102022.28;5018839;28;20208;-78
2021/09/19 05:43:28;;;;;;;5.67;3.90;;;;;;;12.46;77.51;102017.25;5018374;28;20191;-78
2021/09/19 05:45:54;;;;;;;6.83;3.90;;;;;;;12.50;76.35;102019.06;5018966;28;20198;-78
2021/09/19 05:48:19;;;;;;;6.53;4.33;;;;;;;12.51;76.24;102023.41;5001480;28;20186;-78
2021/09/19 05:50:46;;;;;;;6.33;4.67;;;;;;;12.53;77.01;102015.75;5018499;28;20676;-78
2021/09/19 05:53:12;;;;;;;6.37;4.27;;;;;;;12.54;76.05;102025.19;5018060;28;20275;-78
2021/09/19 05:55:37;;;;;;;5.97;3.80;;;;;;;12.55;76.00;102016.66;5017014;28;20206;-78
2021/09/19 05:58:03;;;;;;;4.80;3.80;;;;;;;12.59;75.57;102023.63;5017351;28;20191;-78
2021/09/19 06:00:28;;;;;;;6.57;3.70;;;;;;;12.59;76.12;102021.91;5018385;28;20203;-78
2021/09/19 06:02:54;;;;;;;5.80;3.60;;;;;;;12.61;75.70;102016.81;5016985;28;20192;-78
2021/09/19 06:05:19;;;;;;;5.17;3.87;;;;;;;12.64;74.57;102019.50;5018620;28;20269;-78
2021/09/19 06:07:45;;;;;;;5.20;3.87;;;;;;;12.67;75.18;102019.59;5016602;28;20192;-77
2021/09/19 06:10:10;;;;;;;7.23;4.10;;;;;;;12.69;75.11;102028.22;5013768;28;20227;-78
2021/09/19 06:12:36;;;;;;;5.57;3.53;;;;;;;12.67;74.25;102028.16;4998726;28;20723;-77
2021/09/19 06:15:02;;;;;;;6.83;4.20;;;;;;;12.71;74.69;102023.97;5016100;28;20248;-78
2021/09/19 06:17:28;;;;;;;4.77;3.97;;;;;;;12.72;74.43;102026.59;5017175;28;20668;-77
2021/09/19 06:19:53;;;;;;;7.43;4.03;;;;;;;12.74;75.08;102024.97;5016991;28;20183;-78
2021/09/19 06:22:18;;;;;;;5.27;3.80;;;;;;;12.77;75.25;102032.75;5016122;28;20195;-78
2021/09/19 06:24:44;;;;;;;7.07;3.60;;;;;;;12.76;75.25;102038.72;5017713;28;20214;-78
2021/09/19 06:27:12;;;;;;;7.23;4.13;;;;;;;12.80;75.02;102031.94;5018202;28;20183;-78
2021/09/19 06:29:38;;;;;;;4.77;3.70;;;;;;;12.79;75.06;102025.06;5016589;28;20223;-78
2021/09/19 06:32:03;;;;;;;5.33;3.77;;;;;;;12.82;75.06;102036.31;5016140;28;20257;-78
2021/09/19 06:34:29;;;;;;;4.67;4.00;;;;;;;12.82;74.63;102033.75;5016129;28;20199;-78
2021/09/19 06:36:54;;;;;;;7.13;3.60;;;;;;;12.84;75.37;102033.78;5016494;28;20189;-78
2021/09/19 06:39:20;;;;;;;6.30;3.73;;;;;;;12.83;74.54;102032.94;5017699;28;20680;-77
2021/09/19 06:41:45;;;;;;;6.13;4.07;;;;;;;12.86;74.55;102027.00;5016406;28;20632;-78
2021/09/19 06:44:10;;;;;;;5.77;4.03;;;;;;;12.94;74.09;102031.53;5017974;28;20537;-78
2021/09/19 06:46:36;;;;;;;5.77;3.97;;;;;;;12.98;74.61;102023.97;5016397;28;20425;-78
2021/09/19 06:49:03;;;;;;;6.03;4.27;;;;;;;12.94;74.89;102026.41;5016230;28;20254;-77
2021/09/19 06:51:28;;;;;;;6.20;4.00;;;;;;;13.00;74.34;102024.84;5016375;28;20230;-78
2021/09/19 06:53:54;;;;;;;6.07;3.63;;;;;;;13.03;73.75;102028.38;5016125;28;20527;-78
2021/09/19 06:56:21;;;;;;;7.07;3.97;;;;;;;13.04;73.06;102025.00;5000132;28;20210;-77
2021/09/19 06:58:47;;;;;;;5.80;4.20;;;;;;;13.07;74.02;102022.50;5017739;28;20558;-78
2021/09/19 07:01:14;;;;;;;5.07;4.00;;;;;;;13.13;73.93;102032.97;5015769;28;20306;-77
2021/09/19 07:03:40;;;;;;;5.33;3.57;;;;;;;13.13;73.15;102027.84;5016012;28;20191;-78
2021/09/19 07:06:05;;;;;;;4.80;3.50;;;;;;;13.23;73.29;102029.81;5015601;28;20679;-78
2021/09/19 07:08:30;;;;;;;5.00;3.97;;;;;;;13.24;73.74;102028.09;5014261;28;20180;-78
2021/09/19 07:10:56;;;;;;;6.00;3.73;;;;;;;13.19;72.90;102022.84;4995659;28;20260;-77
2021/09/19 07:13:21;;;;;;;6.37;3.87;;;;;;;13.21;71.71;102018.59;4996406;28;20199;-77
2021/09/19 07:15:52;;;;;;;5.80;3.70;;;;;;;13.30;72.30;102012.88;5014102;28;20241;-78
2021/09/19 07:18:19;;;;;;;5.37;3.87;;;;;;;13.34;72.81;102019.81;5014775;28;20219;-78
2021/09/19 07:20:44;;;;;;;5.63;4.10;;;;;;;13.34;72.08;102019.81;5014286;28;20649;-78
2021/09/19 07:23:10;;;;;;;6.00;3.90;;;;;;;13.36;71.89;102018.16;5014144;28;20187;-77
2021/09/19 07:25:35;;;;;;;7.17;4.17;;;;;;;13.44;72.52;102017.53;5013465;28;20695;-78
2021/09/19 07:28:03;;;;;;;7.20;3.90;;;;;;;13.53;72.65;102014.34;5013526;28;20540;-78
2021/09/19 07:30:30;;;;;;;5.93;4.47;;;;;;;13.53;72.16;102015.19;5013857;28;20250;-78
2021/09/19 07:32:56;;;;;;;7.33;3.40;;;;;;;13.56;70.72;102017.88;5014370;28;20191;-78
2021/09/19 07:35:21;;;;;;;5.73;3.97;;;;;;;13.58;69.92;102017.91;5014471;28;20191;-77
2021/09/19 07:37:47;;;;;;;4.60;3.30;;;;;;;13.65;70.88;102017.22;5014526;28;20310;-78
2021/09/19 07:40:13;;;;;;;4.63;3.17;;;;;;;13.74;70.49;102018.34;5013740;28;20211;-77
2021/09/19 07:42:39;;;;;;;7.03;4.40;;;;;;;13.76;70.41;102014.09;5015711;28;20191;-77
2021/09/19 07:45:05;;;;;;;7.97;3.77;;;;;;;13.80;70.36;102023.63;5015218;28;20179;-77
2021/09/19 07:47:30;;;;;;;4.70;3.70;;;;;;;13.82;69.00;102023.69;5014147;28;20227;-78
2021/09/19 07:49:56;;;;;;;4.90;3.40;;;;;;;13.88;69.86;102034.13;4997380;28;20251;-78
2021/09/19 07:52:22;;;;;;;3.63;3.23;;;;;;;13.96;69.40;102027.47;5018989;28;20246;-78
2021/09/19 07:54:47;;;;;;;5.73;3.77;;;;;;;13.93;69.28;102025.69;5010817;28;20198;-77
2021/09/19 07:57:13;;;;;;;4.47;3.20;;;;;;;13.98;69.50;102031.81;5012145;28;20274;-78
2021/09/19 07:59:38;;;;;;;7.73;3.60;;;;;;;14.02;68.39;102041.38;5014095;28;20251;-77
2021/09/19 08:02:04;;;;;;;4.53;3.30;;;;;;;14.09;67.81;102032.94;4996694;28;20716;-79
2021/09/19 08:04:29;;;;;;;6.10;3.60;;;;;;;14.12;68.22;102035.59;5014990;28;20259;-77
2021/09/19 08:06:55;;;;;;;5.37;3.30;;;;;;;14.18;67.90;102034.88;5015220;28;20193;-78
2021/09/19 08:09:20;;;;;;;5.63;3.47;;;;;;;14.27;67.11;102045.44;5015942;28;20207;-78
2021/09/19 08:11:45;;;;;;;4.77;3.17;;;;;;;14.40;68.68;102043.19;4997694;28;20203;-78
2021/09/19 08:14:11;;;;;;;5.10;3.10;;;;;;;14.40;67.75;102043.19;4997291;28;20183;-78
2021/09/19 08:16:40;;;;;;;4.13;3.07;;;;;;;14.47;67.92;102037.34;5013342;28;20565;-77
2021/09/19 08:19:08;;;;;;;4.40;3.50;;;;;;;14.54;68.07;102046.09;5013485;28;20568;-77
2021/09/19 08:21:36;;;;;;;3.50;2.80;;;;;;;14.61;67.30;102046.25;5014218;28;20233;-78
2021/09/19 08:24:02;;;;;;;4.00;3.23;;;;;;;14.58;65.38;102045.28;5013936;28;20184;-78
2021/09/19 08:26:27;;;;;;;3.67;3.17;;;;;;;14.67;65.19;102042.91;5013709;28;20230;-78
2021/09/19 08:28:53;;;;;;;4.43;2.93;;;;;;;14.76;64.75;102043.13;5013714;28;20246;-78
2021/09/19 08:31:18;;;;;;;4.17;2.97;;;;;;;14.85;64.58;102035.59;5015153;28;20215;-78
2021/09/19 08:33:44;;;;;;;3.53;3.00;;;;;;;14.90;63.18;102034.84;5013679;28;20198;-78
2021/09/19 08:36:09;;;;;;;3.20;2.70;;;;;;;14.83;62.67;102035.53;5013776;28;20195;-79
2021/09/19 08:38:34;;;;;;;6.20;2.97;;;;;;;14.88;61.83;102038.22;5013986;28;20198;-78
2021/09/19 08:40:59;;;;;;;3.00;2.63;;;;;;;14.91;62.49;102046.91;5013909;28;20215;-77
2021/09/19 08:43:25;;;;;;;3.13;2.67;;;;;;;14.93;62.69;102050.41;5014114;28;20214;-78
2021/09/19 08:45:51;;;;;;;4.37;2.90;;;;;;;15.03;63.67;102056.59;4996821;28;20175;-78
2021/09/19 08:48:19;;;;;;;5.80;2.83;;;;;;;15.17;63.16;102055.19;5014831;28;20179;-78
2021/09/19 08:50:48;;;;;;;4.20;2.97;;;;;;;15.18;63.05;102052.63;5014439;28;20305;-78
2021/09/19 08:53:13;;;;;;;3.83;2.57;;;;;;;15.20;61.00;102048.34;5014394;28;20636;-78
2021/09/19 08:55:41;;;;;;;2.87;2.57;;;;;;;15.30;60.46;102039.09;5015121;28;20182;-78
2021/09/19 08:58:07;;;;;;;3.70;3.03;;;;;;;15.42;61.44;102049.72;5015390;28;20186;-79
2021/09/19 09:00:48;;;;;;;4.63;2.93;;;;;;;15.46;59.89;102056.63;5013624;28;20759;-78
2021/09/19 09:03:16;;;;;;;3.23;2.60;;;;;;;15.57;58.11;102053.41;4997882;28;20179;-78
2021/09/19 09:05:41;;;;;;;3.43;2.57;;;;;;;15.58;58.93;102052.59;5013249;28;20184;-78
2021/09/19 09:08:09;;;;;;;3.57;2.57;;;;;;;15.57;59.50;102053.41;5014336;28;20225;-79
2021/09/19 09:10:42;;;;;;;3.93;2.50;;;;;;;15.61;59.39;102052.63;5015384;28;20223;-78
2021/09/19 09:13:12;;;;;;;3.53;2.43;;;;;;;15.61;60.12;102052.63;5019968;28;20210;-78
2021/09/19 09:15:46;;;;;;;3.67;2.90;;;;;;;15.89;60.94;102048.84;5018047;28;20199;-78
2021/09/19 09:18:14;;;;;;;3.37;2.60;;;;;;;15.97;58.78;102049.84;5018086;28;20201;-79
2021/09/19 09:21:13;;;;;;;3.13;2.50;;;;;;;15.96;58.16;102045.50;5017024;28;20211;-78
2021/09/19 09:23:50;;;;;;;3.83;2.60;;;;;;;16.16;58.56;102037.22;5017491;28;20192;-76
2021/09/19 09:26:37;;;;;;;2.90;2.50;;;;;;;16.47;57.90;102039.47;5017572;28;20833;-78
2021/09/19 09:29:08;;;;;;;3.20;2.70;;;;;;;17.25;52.53;102040.53;5018580;28;20247;-78
2021/09/19 09:31:38;;;;;;;4.00;2.73;;;;;;;23.10;40.71;102005.56;5016307;28;20750;-79
2021/09/19 09:34:20;;;;;;;3.17;2.43;;;;;;;22.16;41.35;102010.94;5001146;28;20278;-78
2021/09/19 09:37:03;;;;;;;3.17;2.60;;;;;;;21.57;40.83;102017.50;5016511;28;20679;-77
2021/09/19 09:39:37;;;;;;;3.17;2.80;;;;;;;21.11;43.01;102026.44;5020461;28;20241;-76
2021/09/19 09:42:07;;;;;;;3.83;2.43;;;;;;;21.28;41.20;102022.88;5013665;28;20264;-75
2021/09/19 09:44:43;;;;;;;3.03;2.50;;;;;;;20.32;43.30;102022.31;5015541;28;20559;-76
2021/09/19 09:47:13;;;;;;;3.30;2.63;;;;;;;20.58;42.27;102018.78;5014399;28;20683;-76
2021/09/19 09:49:48;;;;;;;3.00;2.63;;;;;;;21.16;42.04;102019.47;5015943;28;20214;-76
2021/09/19 09:52:37;;;;;;;3.20;2.47;;;;;;;20.44;45.38;102022.28;5015560;28;20198;-77
2021/09/19 09:55:10;;;;;;;3.97;2.47;;;;;;;20.21;44.86;102024.06;4999265;28;20191;-76
2021/09/19 09:57:35;;;;;;;4.07;2.80;;;;;;;20.38;45.31;102027.50;5000113;28;20210;-77
2021/09/19 10:00:05;;;;;;;4.10;2.73;;;;;;;19.53;45.91;102024.00;5016407;28;20549;-78
2021/09/19 10:02:32;;;;;;;3.10;2.80;;;;;;;19.49;45.62;102018.81;5018405;28;20206;-77
2021/09/19 10:04:58;;;;;;;4.97;2.70;;;;;;;19.65;45.20;102013.63;5000189;28;20637;-77
2021/09/19 10:07:24;;;;;;;5.37;2.67;;;;;;;19.26;45.38;102016.13;5017681;28;20214;-76
2021/09/19 10:09:50;;;;;;;3.23;2.63;;;;;;;19.12;46.45;102020.38;5016319;28;20207;-77
2021/09/19 10:12:20;;;;;;;3.87;2.90;;;;;;;18.81;48.96;102023.75;5017524;28;20258;-77
2021/09/19 10:14:49;;;;;;;3.40;2.97;;;;;;;18.92;49.46;102028.97;5017594;28;20191;-78
2021/09/19 10:17:14;;;;;;;4.43;2.77;;;;;;;19.24;47.95;102017.00;5016383;28;20191;-78
2021/09/19 10:19:41;;;;;;;3.57;2.80;;;;;;;18.75;49.37;102031.47;5017711;28;20206;-77
2021/09/19 10:22:07;;;;;;;5.27;2.60;;;;;;;18.46;49.45;102033.03;5015061;28;20297;-77
2021/09/19 10:24:37;;;;;;;3.50;2.80;;;;;;;18.29;49.67;102037.22;4999813;28;20183;-78
2021/09/19 10:27:14;;;;;;;4.33;2.53;;;;;;;18.65;49.44;102034.03;5016474;28;20202;-78
2021/09/19 10:29:39;;;;;;;2.90;2.50;;;;;;;18.52;49.21;102038.25;5015374;28;20229;-77
2021/09/19 10:32:05;;;;;;;4.57;3.13;;;;;;;19.03;51.36;102037.69;5015793;28;20214;-77
2021/09/19 10:34:31;;;;;;;4.50;2.80;;;;;;;18.86;49.29;102039.31;5015870;28;20195;-77
2021/09/19 10:36:58;;;;;;;5.43;2.60;;;;;;;18.73;49.49;102028.03;5015445;28;20187;-77
2021/09/19 10:39:35;;;;;;;3.33;2.73;;;;;;;18.78;50.26;102026.31;5017161;28;20175;-77
2021/09/19 10:42:16;;;;;;;5.23;3.40;;;;;;;19.22;49.30;102023.91;5015285;28;20214;-76
2021/09/19 10:44:45;;;;;;;3.60;2.50;;;;;;;19.36;47.04;102020.50;5016271;28;20286;-77
2021/09/19 10:47:35;;;;;;;2.87;2.60;;;;;;;19.73;47.42;102024.91;5016415;28;20699;-78
2021/09/19 10:50:21;;;;;;;4.50;2.77;;;;;;;19.86;46.71;102008.44;5015815;28;20216;-77
2021/09/19 10:52:50;;;;;;;4.03;2.63;;;;;;;19.75;46.28;102012.78;5015839;28;20524;-78
2021/09/19 10:55:19;;;;;;;3.67;2.50;;;;;;;19.33;48.47;102007.50;5017163;28;20172;-78
2021/09/19 10:58:12;;;;;;;3.97;2.53;;;;;;;18.75;48.18;102005.53;5015286;28;20270;-78
2021/09/19 11:00:39;;;;;;;4.97;2.57;;;;;;;19.04;48.30;102008.25;5017087;28;20238;-77
2021/09/19 11:03:28;;;;;;;3.50;2.40;;;;;;;19.02;48.15;102010.00;5016835;28;20202;-78
2021/09/19 11:05:54;;;;;;;2.87;2.43;;;;;;;18.87;50.27;102008.19;5016666;28;20329;-77
2021/09/19 11:08:19;;;;;;;4.23;2.60;;;;;;;18.96;49.70;102002.16;5016794;28;20225;-77
2021/09/19 11:10:55;;;;;;;2.00;1.83;;;;;;;18.98;47.64;102003.03;5015696;28;20311;-77
2021/09/19 11:13:36;;;;;;;5.60;2.40;;;;;;;18.83;46.66;102005.59;5015663;28;20559;-77
2021/09/19 11:16:01;;;;;;;4.10;2.60;;;;;;;19.08;46.80;101997.00;5015145;28;20215;-77
2021/09/19 11:18:27;;;;;;;4.90;2.50;;;;;;;18.92;47.67;101997.81;5016709;28;20611;-78
2021/09/19 11:21:10;;;;;;;2.83;2.27;;;;;;;19.44;48.98;101994.53;5016820;28;20204;-77
2021/09/19 11:23:39;;;;;;;2.67;2.10;;;;;;;19.27;47.33;101991.03;4999637;28;20195;-78